createdAt,value
2023-01-13T00:00:38.722Z,99.90
2023-01-13T00:03:07.854Z,99.90
2023-01-13T00:05:36.487Z,99.90
2023-01-13T00:08:06.382Z,99.90
2023-01-13T00:10:35.340Z,99.90
2023-01-13T00:13:05.745Z,99.90
2023-01-13T00:15:34.657Z,99.90
2023-01-13T00:18:04.652Z,99.90
2023-01-13T00:20:33.266Z,99.90
2023-01-13T00:23:01.741Z,99.90
2023-01-13T00:25:30.270Z,99.90
2023-01-13T00:27:58.896Z,99.90
2023-01-13T00:30:27.417Z,99.90
2023-01-13T00:32:55.908Z,99.90
2023-01-13T00:35:25.943Z,99.90
2023-01-13T00:37:54.476Z,99.90
2023-01-13T00:40:22.982Z,99.90
2023-01-13T00:43:08.718Z,99.90
2023-01-13T00:45:37.249Z,99.90
2023-01-13T00:48:05.903Z,99.90
2023-01-13T00:50:35.892Z,99.90
2023-01-13T00:53:04.401Z,99.90
2023-01-13T00:55:33.504Z,99.90
2023-01-13T00:58:03.673Z,99.90
2023-01-13T01:00:32.775Z,99.90
2023-01-13T01:03:01.352Z,99.60
2023-01-13T01:05:29.837Z,98.90
2023-01-13T01:07:59.784Z,98.70
2023-01-13T01:10:29.270Z,98.80
2023-01-13T01:12:57.876Z,98.80
2023-01-13T01:15:26.737Z,99.20
2023-01-13T01:17:55.268Z,99.40
2023-01-13T01:20:23.790Z,99.50
2023-01-13T01:22:52.455Z,99.90
2023-01-13T01:25:22.488Z,99.90
2023-01-13T01:27:51.328Z,99.90
2023-01-13T01:30:20.172Z,99.90
2023-01-13T01:32:48.669Z,99.90
2023-01-13T01:35:17.493Z,99.90
2023-01-13T01:37:46.091Z,99.90
2023-01-13T01:40:14.842Z,99.90
2023-01-13T01:43:02.279Z,99.90
2023-01-13T01:45:32.133Z,99.90
2023-01-13T01:48:02.422Z,99.90
2023-01-13T01:50:31.257Z,99.90
2023-01-13T01:53:02.682Z,99.90
2023-01-13T01:55:32.337Z,99.90
2023-01-13T01:58:07.587Z,99.90
2023-01-13T02:00:36.314Z,99.90
2023-01-13T02:03:05.206Z,99.90
2023-01-13T02:05:34.435Z,99.90
2023-01-13T02:08:03.237Z,99.90
2023-01-13T02:10:32.323Z,99.90
2023-01-13T02:13:05.143Z,99.90
2023-01-13T02:15:39.156Z,99.90
2023-01-13T02:18:18.329Z,99.90
2023-01-13T02:20:57.073Z,99.90
2023-01-13T02:24:14.935Z,99.70
2023-01-13T02:27:14.635Z,99.70
2023-01-13T02:30:14.602Z,99.80
2023-01-13T02:32:52.051Z,99.80
2023-01-13T02:35:25.343Z,99.90
2023-01-13T02:37:55.005Z,99.90
2023-01-13T02:40:26.464Z,99.90
2023-01-13T02:43:16.821Z,99.90
2023-01-13T02:45:50.172Z,99.90
2023-01-13T02:48:19.583Z,99.90
2023-01-13T02:50:52.194Z,99.90
2023-01-13T02:53:24.356Z,99.90
2023-01-13T02:55:55.014Z,99.90
2023-01-13T02:58:25.695Z,99.90
2023-01-13T03:00:56.003Z,99.90
2023-01-13T03:03:24.602Z,99.90
2023-01-13T03:05:55.184Z,99.90
2023-01-13T03:08:39.550Z,99.90
2023-01-13T03:11:10.318Z,99.90
2023-01-13T03:13:49.139Z,99.90
2023-01-13T03:16:25.412Z,99.90
2023-01-13T03:19:04.914Z,99.90
2023-01-13T03:21:37.457Z,99.90
2023-01-13T03:24:09.063Z,99.90
2023-01-13T03:26:44.134Z,99.90
2023-01-13T03:29:18.696Z,99.90
2023-01-13T03:31:55.201Z,99.90
2023-01-13T03:34:29.727Z,99.90
2023-01-13T03:37:02.429Z,99.90
2023-01-13T03:39:33.997Z,99.90
2023-01-13T03:42:05.831Z,99.90
2023-01-13T03:44:36.141Z,99.90
2023-01-13T03:47:11.277Z,99.90
2023-01-13T03:49:44.083Z,99.90
2023-01-13T03:52:15.041Z,99.90
2023-01-13T03:54:47.905Z,99.90
2023-01-13T03:57:17.813Z,99.90
2023-01-13T03:59:50.116Z,99.90
2023-01-13T04:02:24.997Z,99.90
2023-01-13T04:04:57.537Z,99.90
2023-01-13T04:07:32.747Z,99.90
2023-01-13T04:10:04.932Z,99.90
2023-01-13T04:12:48.850Z,99.90
2023-01-13T04:15:18.101Z,99.90
2023-01-13T04:17:48.128Z,99.90
2023-01-13T04:20:17.349Z,99.90
2023-01-13T04:22:45.845Z,99.90
2023-01-13T04:25:14.605Z,99.90
2023-01-13T04:27:43.076Z,99.90
2023-01-13T04:30:12.811Z,99.90
2023-01-13T04:32:41.479Z,99.90
2023-01-13T04:35:11.692Z,99.90
2023-01-13T04:37:40.258Z,99.90
2023-01-13T04:40:10.061Z,99.90
2023-01-13T04:42:38.650Z,99.90
2023-01-13T04:45:08.326Z,99.90
2023-01-13T04:47:36.878Z,99.90
2023-01-13T04:50:06.312Z,99.90
2023-01-13T04:52:36.303Z,99.90
2023-01-13T04:55:05.568Z,99.80
2023-01-13T04:57:34.993Z,99.90
2023-01-13T05:00:03.844Z,99.90
2023-01-13T05:02:32.414Z,99.90
2023-01-13T05:05:01.396Z,99.90
2023-01-13T05:07:29.963Z,99.90
2023-01-13T05:10:00.111Z,99.90
2023-01-13T05:12:46.077Z,99.90
2023-01-13T05:15:33.289Z,99.90
2023-01-13T05:18:02.460Z,99.90
2023-01-13T05:20:31.035Z,99.90
2023-01-13T05:23:16.926Z,99.90
2023-01-13T05:25:49.420Z,99.90
2023-01-13T05:28:18.149Z,99.90
2023-01-13T05:30:49.290Z,99.90
2023-01-13T05:33:20.339Z,99.90
2023-01-13T05:35:49.992Z,99.90
2023-01-13T05:38:19.102Z,99.90
2023-01-13T05:41:06.384Z,99.90
2023-01-13T05:43:35.125Z,99.90
2023-01-13T05:46:06.051Z,99.90
2023-01-13T05:48:35.810Z,99.90
2023-01-13T05:51:06.131Z,99.90
2023-01-13T05:53:35.114Z,99.90
2023-01-13T05:56:07.542Z,99.90
2023-01-13T05:58:36.582Z,99.90
2023-01-13T06:01:07.229Z,99.80
2023-01-13T06:03:36.346Z,99.60
2023-01-13T06:06:05.402Z,99.40
2023-01-13T06:08:34.495Z,99.30
2023-01-13T06:11:03.106Z,99.20
2023-01-13T06:13:33.015Z,99.20
2023-01-13T06:16:01.920Z,98.50
2023-01-13T06:18:30.765Z,98.70
2023-01-13T06:20:59.496Z,99.00
2023-01-13T06:23:30.769Z,98.60
2023-01-13T06:26:05.676Z,98.40
2023-01-13T06:28:36.344Z,97.60
2023-01-13T06:31:07.728Z,98.20
2023-01-13T06:33:39.126Z,99.10
2023-01-13T06:36:12.006Z,99.90
2023-01-13T06:38:43.636Z,99.90
2023-01-13T06:41:12.267Z,99.90
2023-01-13T06:43:41.482Z,99.90
2023-01-13T06:46:10.249Z,99.90
2023-01-13T06:48:38.797Z,99.90
2023-01-13T06:51:07.506Z,99.90
2023-01-13T06:53:36.349Z,99.90
2023-01-13T06:56:05.159Z,99.90
2023-01-13T06:58:33.838Z,99.90
2023-01-13T07:01:04.050Z,99.90
2023-01-13T07:03:32.709Z,99.90
2023-01-13T07:06:02.389Z,99.90
2023-01-13T07:08:31.096Z,99.90
2023-01-13T07:10:59.734Z,99.90
2023-01-13T07:13:45.972Z,99.90
2023-01-13T07:16:16.304Z,99.90
2023-01-13T07:18:44.853Z,99.90
2023-01-13T07:21:18.793Z,99.90
2023-01-13T07:23:48.564Z,99.90
2023-01-13T07:26:17.639Z,99.90
2023-01-13T07:28:46.221Z,99.90
2023-01-13T07:31:17.807Z,99.90
2023-01-13T07:33:46.476Z,99.90
2023-01-13T07:36:15.561Z,99.90
2023-01-13T07:38:44.868Z,99.90
2023-01-13T07:41:31.616Z,99.90
2023-01-13T07:44:00.599Z,99.90
2023-01-13T07:46:30.606Z,99.90
2023-01-13T07:48:59.159Z,99.90
2023-01-13T07:51:27.663Z,99.90
2023-01-13T07:53:56.185Z,99.90
2023-01-13T07:56:24.793Z,99.90
2023-01-13T07:58:53.375Z,99.90
2023-01-13T08:01:22.358Z,99.90
2023-01-13T08:03:52.417Z,99.90
2023-01-13T08:06:20.989Z,99.90
2023-01-13T08:08:49.502Z,99.90
2023-01-13T08:11:18.718Z,99.90
2023-01-13T08:13:47.276Z,99.90
2023-01-13T08:16:16.776Z,99.90
2023-01-13T08:18:45.473Z,99.90
2023-01-13T08:21:16.195Z,99.90
2023-01-13T08:23:46.178Z,99.90
2023-01-13T08:26:17.212Z,99.90
2023-01-13T08:28:45.806Z,99.90
2023-01-13T08:31:17.092Z,99.90
2023-01-13T08:33:45.973Z,99.90
2023-01-13T08:36:16.346Z,99.90
2023-01-13T08:38:44.874Z,99.90
2023-01-13T08:41:15.941Z,99.90
2023-01-13T08:43:44.738Z,99.90
2023-01-13T08:46:13.407Z,99.90
2023-01-13T08:48:42.380Z,99.90
2023-01-13T08:51:12.119Z,99.90
2023-01-13T08:53:42.023Z,99.90
2023-01-13T08:56:11.823Z,99.90
2023-01-13T08:58:41.003Z,99.90
2023-01-13T09:01:10.189Z,99.90
2023-01-13T09:03:39.396Z,99.90
2023-01-13T09:06:08.017Z,99.90
2023-01-13T09:08:36.565Z,99.90
2023-01-13T09:11:27.264Z,99.90
2023-01-13T09:13:54.805Z,99.90
2023-01-13T09:16:23.305Z,99.90
2023-01-13T09:18:51.838Z,99.90
2023-01-13T09:21:21.157Z,99.90
2023-01-13T09:23:49.767Z,99.90
2023-01-13T09:26:22.128Z,99.90
2023-01-13T09:28:50.737Z,99.90
2023-01-13T09:31:19.379Z,99.90
2023-01-13T09:34:04.644Z,99.90
2023-01-13T09:36:33.226Z,99.90
2023-01-13T09:39:01.838Z,99.90
2023-01-13T09:41:50.048Z,99.90
2023-01-13T09:44:21.855Z,99.90
2023-01-13T09:46:53.393Z,99.90
2023-01-13T09:49:24.114Z,99.90
2023-01-13T09:51:58.443Z,99.90
2023-01-13T09:54:32.463Z,99.90
2023-01-13T09:57:02.794Z,99.90
2023-01-13T09:59:36.314Z,99.90
2023-01-13T10:02:17.354Z,99.90
2023-01-13T10:04:46.703Z,99.90
2023-01-13T10:07:15.878Z,99.90
2023-01-13T10:09:48.942Z,99.90
2023-01-13T10:12:41.938Z,99.90
2023-01-13T10:15:15.331Z,99.90
2023-01-13T10:17:47.470Z,99.90
2023-01-13T10:20:20.498Z,99.90
2023-01-13T10:22:55.929Z,99.90
2023-01-13T10:25:42.993Z,99.90
2023-01-13T10:28:14.729Z,99.90
2023-01-13T10:30:45.159Z,99.90
2023-01-13T10:33:17.521Z,99.90
2023-01-13T10:35:59.151Z,99.90
2023-01-13T10:38:30.343Z,99.90
2023-01-13T10:41:00.244Z,99.90
2023-01-13T10:43:31.254Z,99.90
2023-01-13T10:46:03.934Z,99.90
2023-01-13T10:48:38.439Z,99.90
2023-01-13T10:51:21.242Z,99.90
2023-01-13T10:53:55.952Z,99.90
2023-01-13T10:56:26.255Z,99.90
2023-01-13T10:59:13.055Z,99.90
2023-01-13T11:01:43.232Z,99.90
2023-01-13T11:04:33.441Z,99.90
2023-01-13T11:07:02.266Z,99.90
2023-01-13T11:09:32.322Z,99.90
2023-01-13T11:12:03.097Z,99.90
2023-01-13T11:14:39.590Z,99.90
2023-01-13T11:17:21.500Z,99.90
2023-01-13T11:19:53.759Z,99.90
2023-01-13T11:22:25.268Z,99.90
2023-01-13T11:24:56.381Z,99.90
2023-01-13T11:27:37.778Z,99.90
2023-01-13T11:30:13.986Z,99.90
2023-01-13T11:32:49.388Z,99.90
2023-01-13T11:35:19.753Z,99.90
2023-01-13T11:37:53.763Z,99.90
2023-01-13T11:40:27.353Z,99.90
2023-01-13T11:43:00.477Z,99.90
2023-01-13T11:45:37.432Z,99.90
2023-01-13T11:48:06.701Z,99.90
2023-01-13T11:50:38.780Z,99.90
2023-01-13T11:53:14.597Z,99.90
2023-01-13T11:55:51.139Z,99.90
2023-01-13T11:58:38.762Z,99.90
2023-01-13T12:01:29.824Z,99.90
2023-01-13T12:04:07.827Z,99.90
2023-01-13T12:06:38.354Z,99.90
2023-01-13T12:09:23.943Z,99.90
2023-01-13T12:12:18.228Z,99.90
2023-01-13T12:15:00.847Z,99.90
2023-01-13T12:17:34.633Z,99.90
2023-01-13T12:20:14.855Z,99.90
2023-01-13T12:22:46.778Z,99.90
2023-01-13T12:25:19.356Z,99.90
2023-01-13T12:27:50.992Z,99.90
2023-01-13T12:30:25.370Z,99.90
2023-01-13T12:32:58.369Z,99.90
2023-01-13T12:35:34.992Z,99.90
2023-01-13T12:38:09.349Z,99.90
2023-01-13T12:40:47.089Z,99.90
2023-01-13T12:43:36.184Z,99.90
2023-01-13T12:46:41.234Z,99.90
2023-01-13T12:49:23.994Z,99.90
2023-01-13T12:52:16.382Z,99.80
2023-01-13T12:55:24.615Z,99.30
2023-01-13T12:58:17.434Z,99.10
2023-01-13T13:01:00.063Z,98.90
2023-01-13T13:03:36.605Z,99.10
2023-01-13T13:06:15.020Z,99.50
2023-01-13T13:09:03.488Z,99.90
2023-01-13T13:12:02.055Z,99.90
2023-01-13T13:15:04.046Z,99.90
2023-01-13T13:18:03.694Z,99.90
2023-01-13T13:21:09.062Z,99.90
2023-01-13T13:24:03.131Z,99.90
2023-01-13T13:26:40.257Z,99.90
2023-01-13T13:29:25.643Z,99.90
2023-01-13T13:32:15.227Z,99.90
2023-01-13T13:34:49.901Z,99.80
2023-01-13T13:37:29.916Z,99.00
2023-01-13T13:40:20.948Z,99.30
2023-01-13T13:43:14.044Z,99.60
2023-01-13T13:46:23.354Z,99.70
2023-01-13T13:48:53.116Z,99.70
2023-01-13T13:51:27.443Z,99.60
2023-01-13T13:53:59.139Z,99.30
2023-01-13T13:56:30.039Z,99.20
2023-01-13T13:58:58.635Z,99.10
2023-01-13T14:01:29.947Z,99.10
2023-01-13T14:04:07.671Z,99.40
2023-01-13T14:06:36.230Z,99.60
2023-01-13T14:09:05.235Z,99.60
2023-01-13T14:11:36.100Z,99.40
2023-01-13T14:14:06.006Z,99.60
2023-01-13T14:16:36.423Z,99.70
2023-01-13T14:19:05.164Z,99.90
2023-01-13T14:21:33.773Z,99.90
2023-01-13T14:24:10.593Z,99.90
2023-01-13T14:26:40.707Z,99.90
2023-01-13T14:29:14.804Z,99.90
2023-01-13T14:31:43.885Z,99.90
2023-01-13T14:34:31.154Z,99.90
2023-01-13T14:37:01.302Z,99.90
2023-01-13T14:39:41.313Z,99.90
2023-01-13T14:42:15.150Z,99.90
2023-01-13T14:44:46.645Z,99.90
2023-01-13T14:47:27.911Z,99.90
2023-01-13T14:50:02.611Z,99.90
2023-01-13T14:52:32.759Z,99.90
2023-01-13T14:55:25.988Z,99.90
2023-01-13T14:58:24.476Z,99.90
2023-01-13T15:00:54.512Z,99.90
2023-01-13T15:03:23.341Z,99.90
2023-01-13T15:05:53.015Z,99.90
2023-01-13T15:08:40.033Z,99.90
2023-01-13T15:11:15.780Z,99.90
2023-01-13T15:13:49.439Z,99.90
2023-01-13T15:16:24.972Z,99.90
2023-01-13T15:18:54.226Z,99.90
2023-01-13T15:21:23.178Z,99.90
2023-01-13T15:23:51.804Z,99.90
2023-01-13T15:26:23.275Z,99.90
2023-01-13T15:28:54.112Z,99.90
2023-01-13T15:31:23.331Z,99.90
2023-01-13T15:33:52.000Z,99.90
2023-01-13T15:36:23.993Z,99.90
2023-01-13T15:38:52.510Z,99.90
2023-01-13T15:41:41.907Z,99.90
2023-01-13T15:44:28.047Z,99.90
2023-01-13T15:46:56.905Z,99.90
2023-01-13T15:49:34.740Z,99.90
2023-01-13T15:52:04.332Z,99.90
2023-01-13T15:54:32.830Z,99.90
2023-01-13T15:57:01.398Z,99.90
2023-01-13T15:59:31.275Z,99.90
2023-01-13T16:01:59.785Z,99.90
2023-01-13T16:04:28.343Z,99.90
2023-01-13T16:06:56.875Z,99.90
2023-01-13T16:09:25.386Z,99.90
2023-01-13T16:11:53.920Z,99.90
2023-01-13T16:14:22.576Z,99.90
2023-01-13T16:16:52.690Z,99.90
2023-01-13T16:19:21.232Z,99.90
2023-01-13T16:21:49.774Z,99.90
2023-01-13T16:24:18.432Z,99.90
2023-01-13T16:26:47.066Z,99.90
2023-01-13T16:29:15.647Z,99.90
2023-01-13T16:31:44.223Z,99.90
2023-01-13T16:34:14.208Z,99.90
2023-01-13T16:36:44.089Z,99.90
2023-01-13T16:39:21.591Z,99.90
2023-01-13T16:41:50.179Z,99.90
2023-01-13T16:44:18.868Z,99.90
2023-01-13T16:46:47.728Z,99.90
2023-01-13T16:49:18.530Z,99.90
2023-01-13T16:51:47.046Z,99.90
2023-01-13T16:54:15.676Z,99.90
2023-01-13T16:56:44.482Z,99.90
2023-01-13T16:59:14.741Z,99.90
2023-01-13T17:01:44.744Z,99.90
2023-01-13T17:04:18.420Z,99.90
2023-01-13T17:06:54.054Z,99.90
2023-01-13T17:09:24.887Z,99.90
2023-01-13T17:11:53.949Z,99.90
2023-01-13T17:14:23.559Z,99.90
2023-01-13T17:16:53.331Z,99.90
2023-01-13T17:19:25.677Z,99.90
2023-01-13T17:21:54.284Z,99.90
2023-01-13T17:24:24.850Z,99.90
2023-01-13T17:26:53.715Z,99.90
2023-01-13T17:29:25.712Z,99.90
2023-01-13T17:31:54.631Z,99.90
2023-01-13T17:34:24.568Z,99.90
2023-01-13T17:36:53.121Z,99.90
2023-01-13T17:39:23.585Z,99.90
2023-01-13T17:41:52.818Z,99.90
2023-01-13T17:44:22.893Z,99.90
2023-01-13T17:46:51.674Z,99.90
2023-01-13T17:49:21.815Z,99.90
2023-01-13T17:51:53.033Z,99.90
2023-01-13T17:54:22.637Z,99.90
2023-01-13T17:56:51.348Z,99.90
2023-01-13T17:59:22.004Z,99.90
2023-01-13T18:01:50.555Z,99.90
2023-01-13T18:04:20.673Z,99.90
2023-01-13T18:06:49.633Z,99.90
2023-01-13T18:09:19.621Z,99.90
2023-01-13T18:11:48.177Z,99.90
2023-01-13T18:14:17.218Z,99.90
2023-01-13T18:16:45.880Z,99.90
2023-01-13T18:19:32.010Z,99.90
2023-01-13T18:22:18.029Z,99.90
2023-01-13T18:25:05.569Z,99.90
2023-01-13T18:27:35.580Z,99.90
2023-01-13T18:30:04.821Z,99.90
2023-01-13T18:32:33.938Z,99.90
2023-01-13T18:35:06.724Z,99.90
2023-01-13T18:37:38.586Z,99.90
2023-01-13T18:40:12.800Z,99.90
2023-01-13T18:42:54.079Z,99.90
2023-01-13T18:45:25.913Z,99.90
2023-01-13T18:47:55.716Z,99.90
2023-01-13T18:50:25.059Z,99.90
2023-01-13T18:52:54.097Z,99.90
2023-01-13T18:55:24.250Z,99.90
2023-01-13T18:57:53.712Z,99.90
2023-01-13T19:00:23.637Z,99.90
2023-01-13T19:05:35.801Z,99.90
2023-01-13T19:08:04.895Z,99.90
2023-01-13T19:10:34.950Z,99.90
2023-01-13T19:13:03.536Z,99.90
2023-01-13T19:15:32.402Z,99.90
2023-01-13T19:18:00.967Z,99.90
2023-01-13T19:20:29.495Z,99.90
2023-01-13T19:22:57.994Z,99.90
2023-01-13T19:25:26.631Z,99.90
2023-01-13T19:27:56.701Z,99.90
2023-01-13T19:30:25.374Z,99.90
2023-01-13T19:32:54.140Z,99.90
2023-01-13T19:35:22.693Z,99.90
2023-01-13T19:37:51.260Z,99.90
2023-01-13T19:40:19.981Z,99.90
2023-01-13T19:43:05.705Z,99.90
2023-01-13T19:45:36.322Z,99.90
2023-01-13T19:48:05.846Z,99.90
2023-01-13T19:50:38.534Z,99.90
2023-01-13T19:53:07.186Z,99.90
2023-01-13T19:55:36.317Z,99.90
2023-01-13T19:58:04.940Z,99.90
2023-01-13T20:00:34.247Z,99.90
2023-01-13T20:03:08.082Z,99.90
2023-01-13T20:05:36.723Z,99.90
2023-01-13T20:08:05.376Z,99.90
2023-01-13T20:10:33.892Z,99.90
2023-01-13T20:13:02.408Z,99.90
2023-01-13T20:15:31.144Z,99.90
2023-01-13T20:18:00.605Z,99.90
2023-01-13T20:20:31.037Z,99.90
2023-01-13T20:22:59.615Z,99.90
2023-01-13T20:25:28.980Z,99.90
2023-01-13T20:27:58.639Z,99.90
2023-01-13T20:30:27.199Z,99.90
2023-01-13T20:32:55.813Z,99.90
2023-01-13T20:35:29.574Z,99.90
2023-01-13T20:37:59.880Z,99.90
2023-01-13T20:40:28.316Z,99.90
2023-01-13T20:42:56.636Z,99.90
2023-01-13T20:45:26.144Z,99.90
2023-01-13T20:47:55.375Z,99.90
2023-01-13T20:50:23.971Z,99.90
2023-01-13T20:52:52.739Z,99.90
2023-01-13T20:55:23.252Z,99.90
2023-01-13T20:57:51.780Z,99.90
2023-01-13T21:00:21.332Z,99.90
2023-01-13T21:02:49.861Z,99.90
2023-01-13T21:05:18.559Z,99.90
2023-01-13T21:07:47.052Z,99.90
2023-01-13T21:10:15.619Z,99.90
2023-01-13T21:13:03.227Z,99.90
2023-01-13T21:15:31.720Z,99.90
2023-01-13T21:18:17.700Z,99.90
2023-01-13T21:20:46.239Z,99.90
2023-01-13T21:23:15.116Z,99.90
2023-01-13T21:25:43.616Z,99.90
2023-01-13T21:28:14.051Z,99.90
2023-01-13T21:30:43.794Z,99.90
2023-01-13T21:33:14.286Z,99.90
2023-01-13T21:35:42.792Z,99.90
2023-01-13T21:38:12.616Z,99.90
2023-01-13T21:40:41.194Z,99.90
2023-01-13T21:43:31.982Z,99.90
2023-01-13T21:46:17.723Z,99.90
2023-01-13T21:48:46.367Z,99.90
2023-01-13T21:51:15.076Z,99.90
2023-01-13T21:53:43.579Z,99.90
2023-01-13T21:56:12.104Z,99.90
2023-01-13T21:58:41.977Z,99.90
2023-01-13T22:01:12.070Z,99.90
2023-01-13T22:03:54.912Z,99.90
2023-01-13T22:06:23.603Z,99.90
2023-01-13T22:08:53.934Z,99.90
2023-01-13T22:11:22.666Z,99.90
2023-01-13T22:14:09.215Z,99.90
2023-01-13T22:16:41.609Z,99.90
2023-01-13T22:19:11.537Z,99.90
2023-01-13T22:21:40.689Z,99.90
2023-01-13T22:24:09.564Z,99.90
2023-01-13T22:26:38.063Z,99.90
2023-01-13T22:29:07.968Z,99.90
2023-01-13T22:31:36.516Z,99.90
2023-01-13T22:34:05.092Z,99.90
2023-01-13T22:36:33.727Z,99.90
2023-01-13T22:39:02.248Z,99.90
2023-01-13T22:41:30.751Z,99.90
2023-01-13T22:43:59.270Z,99.90
2023-01-13T22:46:29.272Z,99.90
2023-01-13T22:48:57.920Z,99.90
2023-01-13T22:51:26.746Z,99.90
2023-01-13T22:53:55.409Z,99.90
2023-01-13T22:56:27.527Z,99.90
2023-01-13T22:58:56.679Z,99.90
2023-01-13T23:01:26.933Z,99.90
2023-01-13T23:03:57.333Z,99.90
2023-01-13T23:06:27.115Z,99.90
2023-01-13T23:08:55.972Z,99.90
2023-01-13T23:11:26.653Z,99.90
2023-01-13T23:13:58.557Z,99.90
2023-01-13T23:16:27.948Z,99.90
2023-01-13T23:18:58.121Z,99.90
2023-01-13T23:21:27.803Z,99.90
2023-01-13T23:23:58.529Z,99.90
2023-01-13T23:26:28.126Z,99.90
2023-01-13T23:29:00.052Z,99.90
2023-01-13T23:31:29.027Z,99.90
2023-01-13T23:33:59.258Z,99.90
2023-01-13T23:36:28.995Z,99.90
2023-01-13T23:38:59.508Z,99.90
2023-01-13T23:41:28.847Z,99.90
2023-01-13T23:43:59.167Z,99.90
2023-01-13T23:46:27.987Z,99.90
2023-01-13T23:48:58.113Z,99.90
2023-01-13T23:51:27.592Z,99.90
2023-01-13T23:53:56.153Z,99.90
2023-01-13T23:56:26.825Z,99.90
2023-01-13T23:58:55.773Z,99.90
